Time;durP1;ratioP1;P1;durP2;ratioP2;P2;SDS_P1;SDS_P2;PMS_P1;PMS_P2;Temp;Humidity;BMP_temperature;BMP_pressure;BME280_temperature;BME280_humidity;BME280_pressure;Samples;Min_cycle;Max_cycle;Signal;HPM_P1;HPM_P2
2021/12/02 00:02:01;;;;;;;3.65;1.52;;;5.10;99.90;;;;;;5008549;28;20485;-80
2021/12/02 00:04:27;;;;;;;6.63;1.70;;;5.10;99.90;;;;;;4987776;28;20042;-80
2021/12/02 00:06:53;;;;;;;3.90;1.45;;;5.10;99.90;;;;;;5005363;28;20050;-80
2021/12/02 00:09:19;;;;;;;4.05;1.77;;;5.10;99.90;;;;;;4988668;28;20068;-81
2021/12/02 00:11:44;;;;;;;4.60;1.67;;;5.10;99.90;;;;;;5010866;28;20935;-80
2021/12/02 00:14:11;;;;;;;5.03;1.70;;;5.10;99.90;;;;;;4988340;28;20076;-80
2021/12/02 00:16:40;;;;;;;7.80;1.90;;;5.20;99.90;;;;;;5007355;28;20563;-80
2021/12/02 00:21:53;;;;;;;6.03;1.90;;;5.40;99.90;;;;;;5008310;28;20130;-80
2021/12/02 00:24:22;;;;;;;7.78;1.63;;;5.40;99.90;;;;;;5006283;28;20045;-80
2021/12/02 00:26:50;;;;;;;7.22;1.60;;;5.30;99.90;;;;;;4992070;28;20046;-80
2021/12/02 00:29:21;;;;;;;8.18;1.85;;;5.20;99.90;;;;;;4990585;28;20041;-80
2021/12/02 00:31:49;;;;;;;3.58;1.30;;;5.10;99.90;;;;;;4989753;28;20045;-80
2021/12/02 00:34:15;;;;;;;7.43;1.90;;;5.10;99.90;;;;;;4992543;28;20049;-80
2021/12/02 00:36:41;;;;;;;14.82;2.78;;;5.20;99.90;;;;;;4994139;28;20486;-80
2021/12/02 00:39:13;;;;;;;9.35;2.08;;;5.20;99.90;;;;;;4994390;28;20128;-80
2021/12/02 00:41:40;;;;;;;9.98;2.10;;;5.10;99.90;;;;;;4990231;28;20412;-80
2021/12/02 00:44:06;;;;;;;3.97;1.60;;;5.00;99.90;;;;;;4991402;28;20100;-81
2021/12/02 00:46:32;;;;;;;6.32;2.13;;;5.00;99.90;;;;;;4991776;28;20042;-79
2021/12/02 00:49:03;;;;;;;11.30;2.20;;;5.00;99.90;;;;;;4995012;28;20067;-80
2021/12/02 00:51:31;;;;;;;6.28;2.17;;;4.90;99.90;;;;;;5006596;28;20046;-80
2021/12/02 00:54:01;;;;;;;7.32;2.28;;;4.80;99.90;;;;;;4992534;28;20046;-80
2021/12/02 00:56:27;;;;;;;12.48;2.35;;;4.80;99.90;;;;;;4989642;28;20056;-80
2021/12/02 00:58:53;;;;;;;6.53;1.95;;;4.70;99.90;;;;;;4987965;28;20116;-80
2021/12/02 01:01:21;;;;;;;6.35;1.70;;;4.80;99.90;;;;;;4988037;28;20170;-80
2021/12/02 01:03:49;;;;;;;6.43;1.88;;;4.90;99.90;;;;;;4989549;28;20049;-80
2021/12/02 01:06:16;;;;;;;5.32;1.70;;;4.90;99.90;;;;;;5007569;28;20034;-79
2021/12/02 01:08:42;;;;;;;11.23;2.05;;;5.00;99.90;;;;;;5011988;28;20368;-80
2021/12/02 01:11:12;;;;;;;3.22;1.90;;;5.00;99.90;;;;;;4993468;28;20045;-80
2021/12/02 01:13:41;;;;;;;2.72;1.65;;;5.00;99.90;;;;;;4991680;28;20046;-80
2021/12/02 01:16:07;;;;;;;4.93;1.63;;;4.90;99.90;;;;;;4990557;28;20057;-80
2021/12/02 01:18:32;;;;;;;3.13;1.40;;;4.80;99.90;;;;;;4988500;28;20057;-81
2021/12/02 01:21:00;;;;;;;2.50;1.45;;;4.80;99.90;;;;;;4994100;28;20128;-80
2021/12/02 01:23:29;;;;;;;1.23;1.00;;;4.70;99.90;;;;;;4994086;28;20061;-81
2021/12/02 01:26:08;;;;;;;4.85;1.30;;;4.70;99.90;;;;;;4990859;28;20097;-80
2021/12/02 01:28:35;;;;;;;8.02;1.58;;;4.70;99.90;;;;;;5007133;28;20065;-80
2021/12/02 01:31:01;;;;;;;3.42;1.35;;;4.70;99.90;;;;;;4990641;28;20065;-80
2021/12/02 01:33:28;;;;;;;2.97;1.70;;;4.60;99.90;;;;;;4990589;28;20153;-80
2021/12/02 01:36:00;;;;;;;4.60;1.88;;;4.70;99.90;;;;;;4991741;28;20057;-81
2021/12/02 01:38:27;;;;;;;3.78;1.30;;;4.70;99.90;;;;;;5004490;28;20049;-81
2021/12/02 01:40:54;;;;;;;3.33;1.00;;;4.70;99.90;;;;;;4990401;28;20115;-80
2021/12/02 01:43:21;;;;;;;0.80;0.80;;;4.70;99.90;;;;;;4989772;28;20046;-80
2021/12/02 01:45:48;;;;;;;2.13;1.10;;;4.60;99.90;;;;;;4992565;28;20038;-80
2021/12/02 01:48:25;;;;;;;1.08;0.90;;;4.60;99.90;;;;;;4988657;28;20037;-80
2021/12/02 01:51:06;;;;;;;1.77;1.10;;;4.60;99.90;;;;;;4987493;28;20050;-80
2021/12/02 01:53:38;;;;;;;3.10;1.00;;;4.50;99.90;;;;;;5014234;28;20136;-80
2021/12/02 01:56:10;;;;;;;1.87;1.10;;;4.50;99.90;;;;;;4989690;28;20509;-80
2021/12/02 01:58:48;;;;;;;1.33;1.02;;;4.40;99.90;;;;;;4989405;28;20042;-80
2021/12/02 02:01:21;;;;;;;1.52;1.00;;;4.40;99.90;;;;;;4990754;28;20076;-80
2021/12/02 02:03:49;;;;;;;4.47;1.48;;;4.40;99.90;;;;;;4991341;28;20117;-80
2021/12/02 02:06:25;;;;;;;1.10;1.10;;;4.40;99.90;;;;;;4988189;28;20137;-80
2021/12/02 02:08:54;;;;;;;2.95;1.08;;;4.40;99.90;;;;;;4993717;28;20034;-80
2021/12/02 02:11:20;;;;;;;3.20;1.30;;;4.50;99.90;;;;;;4992907;28;20069;-80
2021/12/02 02:13:46;;;;;;;1.80;1.00;;;4.60;99.90;;;;;;5010198;28;20417;-80
2021/12/02 02:16:14;;;;;;;5.88;1.90;;;4.60;99.90;;;;;;4988018;28;20398;-80
2021/12/02 02:18:41;;;;;;;5.07;1.40;;;4.50;99.90;;;;;;5007661;28;20042;-80
2021/12/02 02:21:13;;;;;;;3.80;1.38;;;4.50;99.90;;;;;;4989610;28;20535;-80
2021/12/02 02:23:45;;;;;;;3.65;1.30;;;4.40;99.90;;;;;;4988179;28;20132;-80
2021/12/02 02:26:11;;;;;;;9.00;1.50;;;4.30;99.90;;;;;;5008455;28;20049;-80
2021/12/02 02:28:40;;;;;;;3.67;1.40;;;4.30;99.90;;;;;;4988521;28;20085;-79
2021/12/02 02:31:06;;;;;;;2.88;1.50;;;4.30;99.90;;;;;;4990135;28;20058;-79
2021/12/02 02:33:39;;;;;;;6.32;1.42;;;4.40;99.90;;;;;;4985833;28;20054;-80
2021/12/02 02:36:06;;;;;;;3.95;1.50;;;4.40;99.90;;;;;;4991724;28;20053;-80
2021/12/02 02:38:33;;;;;;;6.57;1.80;;;4.60;99.90;;;;;;4990839;28;20689;-81
2021/12/02 02:41:01;;;;;;;6.47;1.58;;;4.80;99.90;;;;;;4992943;28;20123;-81
2021/12/02 02:43:27;;;;;;;7.85;2.30;;;4.70;99.90;;;;;;4987759;28;20057;-81
2021/12/02 02:45:53;;;;;;;9.18;3.00;;;4.80;99.90;;;;;;4991085;28;20049;-82
2021/12/02 02:48:18;;;;;;;9.98;2.45;;;4.80;99.90;;;;;;4985668;28;20405;-82
2021/12/02 02:50:44;;;;;;;4.28;2.15;;;4.80;99.90;;;;;;4984798;28;20502;-79
2021/12/02 02:53:17;;;;;;;8.65;2.50;;;4.70;99.90;;;;;;4992019;28;20081;-80
2021/12/02 02:55:48;;;;;;;4.82;1.92;;;4.60;99.90;;;;;;4992628;28;20064;-80
2021/12/02 03:06:46;;;;;;;8.63;1.95;;;4.30;99.90;;;;;;4990366;28;20073;-80
2021/12/02 03:09:07;;;;;;;9.55;1.98;;;4.30;99.90;;;;;;4986882;28;20133;-80
2021/12/02 03:11:45;;;;;;;7.30;1.90;;;4.30;99.90;;;;;;4988013;28;20060;-80
2021/12/02 03:14:17;;;;;;;5.88;2.10;;;4.30;99.90;;;;;;4989642;28;20073;-80
2021/12/02 03:16:46;;;;;;;7.65;2.70;;;4.30;99.90;;;;;;4987008;28;20798;-80
2021/12/02 03:19:21;;;;;;;8.85;2.00;;;4.30;99.90;;;;;;5004426;28;20076;-81
2021/12/02 03:21:46;;;;;;;13.40;2.20;;;4.40;99.90;;;;;;4986518;28;20093;-81
2021/12/02 03:24:12;;;;;;;11.88;2.33;;;4.40;99.90;;;;;;5010082;28;20073;-80
2021/12/02 03:26:41;;;;;;;9.77;1.75;;;4.40;99.90;;;;;;5011881;28;20048;-80
2021/12/02 03:29:07;;;;;;;6.05;1.77;;;4.40;99.90;;;;;;4989266;28;20489;-81
2021/12/02 03:31:33;;;;;;;5.20;1.70;;;4.30;99.90;;;;;;5007592;28;20057;-81
2021/12/02 03:34:00;;;;;;;8.93;1.70;;;4.20;99.90;;;;;;4989039;28;20068;-81
2021/12/02 03:36:26;;;;;;;7.57;1.70;;;4.10;99.90;;;;;;5004056;28;20414;-81
2021/12/02 03:38:52;;;;;;;8.32;1.55;;;3.90;99.90;;;;;;4990319;28;20461;-80
2021/12/02 03:41:18;;;;;;;5.20;1.52;;;3.90;99.90;;;;;;4988856;28;20058;-81
2021/12/02 03:43:47;;;;;;;7.82;1.60;;;3.80;99.90;;;;;;4988779;28;20054;-80
2021/12/02 03:46:15;;;;;;;5.03;1.58;;;3.70;99.90;;;;;;4988391;28;20046;-80
2021/12/02 03:48:41;;;;;;;1.67;1.00;;;;;;;;;;4986476;28;20141;-81
2021/12/02 03:51:09;;;;;;;4.55;1.23;;;;;;;;;;4987279;28;20101;-80
2021/12/02 03:53:35;;;;;;;5.45;1.50;;;3.60;99.90;;;;;;4989075;28;20050;-80
2021/12/02 03:56:02;;;;;;;6.18;1.45;;;3.50;99.90;;;;;;4988595;28;20569;-80
2021/12/02 03:58:30;;;;;;;5.63;1.50;;;3.50;99.90;;;;;;4988258;28;20092;-80
2021/12/02 04:00:56;;;;;;;3.65;1.30;;;3.60;99.90;;;;;;4990347;28;20046;-80
2021/12/02 04:03:22;;;;;;;4.82;1.65;;;3.60;99.90;;;;;;4987968;28;20038;-80
2021/12/02 04:05:48;;;;;;;4.35;1.20;;;3.70;99.90;;;;;;4991957;28;20506;-80
2021/12/02 04:08:14;;;;;;;2.67;1.10;;;3.80;99.90;;;;;;4985488;28;20077;-81
2021/12/02 04:10:41;;;;;;;4.78;1.80;;;3.90;99.90;;;;;;4993818;28;20037;-81
2021/12/02 04:13:14;;;;;;;4.45;1.52;;;4.00;99.90;;;;;;4993653;28;20386;-81
2021/12/02 04:15:41;;;;;;;8.57;3.53;;;3.90;99.90;;;;;;4995206;28;20046;-81
2021/12/02 04:18:07;;;;;;;13.68;5.82;;;3.90;99.90;;;;;;4987690;28;20058;-79
2021/12/02 04:20:34;;;;;;;8.38;4.38;;;3.90;99.90;;;;;;4994132;28;20061;-80
2021/12/02 04:22:59;;;;;;;9.45;2.75;;;3.90;99.90;;;;;;4999408;28;21585;-80
2021/12/02 04:25:27;;;;;;;5.63;2.15;;;3.90;99.90;;;;;;4993943;28;20058;-79
2021/12/02 04:27:53;;;;;;;3.47;1.30;;;3.80;99.90;;;;;;4995144;28;20046;-80
2021/12/02 04:30:24;;;;;;;7.07;2.25;;;3.70;99.90;;;;;;5010684;28;20042;-79
2021/12/02 04:32:50;;;;;;;8.32;1.90;;;3.60;99.90;;;;;;4989793;28;20146;-79
2021/12/02 04:35:16;;;;;;;8.70;1.80;;;3.60;99.90;;;;;;4993007;28;20044;-79
2021/12/02 04:37:44;;;;;;;6.90;1.88;;;3.80;99.90;;;;;;4991644;28;20046;-80
2021/12/02 04:40:11;;;;;;;4.28;1.50;;;3.60;99.90;;;;;;4993925;28;20061;-79
2021/12/02 04:42:37;;;;;;;5.50;1.63;;;3.60;99.90;;;;;;4991223;28;20105;-80
2021/12/02 04:45:04;;;;;;;3.88;1.10;;;3.70;99.90;;;;;;4991233;28;20061;-79
2021/12/02 04:47:30;;;;;;;3.47;1.52;;;3.80;99.90;;;;;;4991953;28;20042;-80
2021/12/02 04:49:56;;;;;;;2.25;1.30;;;3.90;99.90;;;;;;4995353;28;20065;-79
2021/12/02 04:52:22;;;;;;;3.15;1.20;;;3.90;99.90;;;;;;4992288;28;20130;-79
2021/12/02 04:54:48;;;;;;;4.35;1.50;;;4.00;99.90;;;;;;4992585;28;20137;-79
2021/12/02 04:57:14;;;;;;;3.53;1.38;;;4.10;99.90;;;;;;5007903;28;20042;-80
2021/12/02 04:59:39;;;;;;;2.55;1.25;;;4.20;99.90;;;;;;4995693;28;20104;-80
2021/12/02 05:02:05;;;;;;;5.32;1.25;;;4.20;99.90;;;;;;4989006;28;20037;-79
2021/12/02 05:04:31;;;;;;;3.60;1.30;;;4.40;99.90;;;;;;4992310;28;20050;-80
2021/12/02 05:06:56;;;;;;;4.78;1.70;;;4.40;99.90;;;;;;4990640;28;20068;-80
2021/12/02 05:09:22;;;;;;;5.00;1.55;;;4.40;99.90;;;;;;4994329;28;20375;-79
2021/12/02 05:11:51;;;;;;;3.90;1.58;;;4.40;99.90;;;;;;4991104;28;20050;-80
2021/12/02 05:14:16;;;;;;;11.60;1.63;;;4.40;99.90;;;;;;4993672;28;20125;-80
2021/12/02 05:16:42;;;;;;;3.70;1.30;;;3.60;99.90;;;;;;4993021;28;20210;-79
2021/12/02 05:19:08;;;;;;;5.90;1.40;;;4.20;99.90;;;;;;5012523;28;20505;-80
2021/12/02 05:21:33;;;;;;;6.10;1.50;;;4.20;99.90;;;;;;4990660;28;20079;-81
2021/12/02 05:23:59;;;;;;;7.35;1.58;;;4.10;99.90;;;;;;4996717;28;20104;-78
2021/12/02 05:26:26;;;;;;;6.18;1.15;;;4.00;99.90;;;;;;4990058;28;20129;-79
2021/12/02 05:28:53;;;;;;;5.60;1.80;;;4.00;99.90;;;;;;5008237;28;20041;-80
2021/12/02 05:31:21;;;;;;;6.63;1.48;;;4.00;99.90;;;;;;4989017;28;20053;-79
2021/12/02 05:33:47;;;;;;;5.00;1.20;;;4.00;99.90;;;;;;4989169;28;20077;-80
2021/12/02 05:36:12;;;;;;;3.60;1.70;;;4.00;99.90;;;;;;5006839;28;20105;-79
2021/12/02 05:38:38;;;;;;;2.42;1.02;;;3.90;99.90;;;;;;5009984;28;20041;-80
2021/12/02 05:41:04;;;;;;;4.20;1.10;;;3.90;99.90;;;;;;4993128;28;20563;-80
2021/12/02 05:43:30;;;;;;;1.40;1.00;;;4.00;99.90;;;;;;4989364;28;20149;-80
2021/12/02 05:45:56;;;;;;;3.83;1.08;;;3.90;99.90;;;;;;4990763;28;20390;-80
2021/12/02 05:48:22;;;;;;;3.58;1.45;;;3.90;99.90;;;;;;4987458;28;20048;-81
2021/12/02 05:50:48;;;;;;;2.17;1.33;;;3.90;99.90;;;;;;4995157;28;20050;-80
2021/12/02 05:53:14;;;;;;;3.65;1.10;;;3.90;99.90;;;;;;4991247;28;20049;-80
2021/12/02 05:55:40;;;;;;;1.00;1.00;;;3.90;99.90;;;;;;4992391;28;20041;-79
2021/12/02 05:58:11;;;;;;;4.35;1.13;;;3.90;99.90;;;;;;4992168;28;20050;-81
2021/12/02 06:00:38;;;;;;;3.67;1.10;;;3.90;99.90;;;;;;5009066;28;20239;-79
2021/12/02 06:03:04;;;;;;;3.63;1.38;;;3.90;99.90;;;;;;4991211;28;20037;-81
2021/12/02 06:05:29;;;;;;;7.78;1.40;;;3.90;99.90;;;;;;4994792;28;20532;-81
2021/12/02 06:08:01;;;;;;;1.75;1.27;;;3.80;99.90;;;;;;4991969;28;20137;-80
2021/12/02 06:10:27;;;;;;;4.32;1.50;;;3.80;99.90;;;;;;4997937;28;20093;-80
2021/12/02 06:12:52;;;;;;;4.18;1.30;;;3.80;99.90;;;;;;4994723;28;20089;-80
2021/12/02 06:15:18;;;;;;;2.95;1.55;;;4.00;99.90;;;;;;4991695;28;20469;-80
2021/12/02 06:17:45;;;;;;;3.65;1.50;;;4.10;99.90;;;;;;4991613;28;20045;-81
2021/12/02 06:20:12;;;;;;;6.00;1.65;;;4.20;99.90;;;;;;4991580;28;20034;-81
2021/12/02 06:22:38;;;;;;;3.42;1.30;;;4.20;99.90;;;;;;4990766;28;20782;-81
2021/12/02 06:32:51;;;;;;;3.83;1.40;;;4.40;99.90;;;;;;5308166;23;20050;-79
2021/12/02 06:35:17;;;;;;;8.60;2.05;;;4.40;99.90;;;;;;4991286;28;20060;-79
2021/12/02 06:37:45;;;;;;;4.72;1.70;;;4.30;99.90;;;;;;4989617;28;20397;-80
2021/12/02 06:40:12;;;;;;;9.82;1.92;;;4.30;99.90;;;;;;4988735;28;20058;-80
2021/12/02 06:42:38;;;;;;;7.20;1.80;;;4.30;99.90;;;;;;4992555;28;20046;-80
2021/12/02 06:45:04;;;;;;;6.30;1.50;;;4.30;99.90;;;;;;4989470;28;20152;-80
2021/12/02 06:47:34;;;;;;;2.95;1.40;;;4.20;99.90;;;;;;4988897;28;20108;-78
2021/12/02 06:50:02;;;;;;;3.25;1.23;;;4.20;99.90;;;;;;4993198;28;20050;-80
2021/12/02 06:52:28;;;;;;;6.50;1.30;;;4.10;99.90;;;;;;4985230;28;20046;-79
2021/12/02 06:54:54;;;;;;;3.78;1.30;;;4.00;99.90;;;;;;4990625;28;20090;-79
2021/12/02 06:57:20;;;;;;;3.78;1.52;;;4.00;99.90;;;;;;4992805;28;20108;-79
2021/12/02 06:59:46;;;;;;;10.00;1.60;;;4.00;99.90;;;;;;4989924;28;20128;-79
2021/12/02 07:02:12;;;;;;;5.63;1.52;;;4.00;99.90;;;;;;4992936;28;20038;-80
2021/12/02 07:04:38;;;;;;;6.70;2.60;;;4.10;99.90;;;;;;5011081;28;20053;-80
2021/12/02 07:07:04;;;;;;;2.63;1.80;;;4.10;99.90;;;;;;4990342;28;20053;-80
2021/12/02 07:09:29;;;;;;;3.03;1.77;;;4.10;99.90;;;;;;5011378;28;20049;-80
2021/12/02 07:11:55;;;;;;;1.58;1.30;;;4.10;99.90;;;;;;5007355;28;20393;-80
2021/12/02 07:14:22;;;;;;;4.18;2.00;;;4.10;99.90;;;;;;4992287;28;20049;-80
2021/12/02 07:16:48;;;;;;;5.75;3.00;;;4.00;99.90;;;;;;4993659;28;20060;-80
2021/12/02 07:19:14;;;;;;;6.97;3.28;;;4.00;99.90;;;;;;5011110;28;20161;-79
2021/12/02 07:21:40;;;;;;;7.03;3.30;;;4.00;99.90;;;;;;4992537;28;20371;-77
2021/12/02 07:24:09;;;;;;;3.85;1.90;;;4.00;99.90;;;;;;4992461;28;20056;-78
2021/12/02 07:26:40;;;;;;;6.85;1.50;;;4.10;99.90;;;;;;4989671;28;20049;-79
2021/12/02 07:29:13;;;;;;;4.13;1.70;;;3.90;99.90;;;;;;4994368;28;20044;-80
2021/12/02 07:31:40;;;;;;;6.53;2.50;;;3.90;99.90;;;;;;4989837;28;20072;-79
2021/12/02 07:34:07;;;;;;;2.33;1.80;;;3.90;99.90;;;;;;4979152;28;20057;-80
2021/12/02 07:36:34;;;;;;;3.08;1.50;;;3.90;99.90;;;;;;4972403;28;20039;-80
2021/12/02 07:39:06;;;;;;;3.60;1.25;;;4.00;99.90;;;;;;4968001;28;20081;-80
2021/12/02 07:41:32;;;;;;;3.28;1.63;;;4.00;99.90;;;;;;4974407;28;20046;-80
2021/12/02 07:43:57;;;;;;;4.88;1.40;;;4.00;99.90;;;;;;4971743;28;20077;-81
2021/12/02 07:46:23;;;;;;;4.10;1.60;;;4.00;99.90;;;;;;4972647;28;20042;-81
2021/12/02 07:48:49;;;;;;;4.32;2.20;;;4.00;99.90;;;;;;4973238;28;20100;-79
2021/12/02 07:51:16;;;;;;;4.85;2.25;;;4.00;99.90;;;;;;4973126;28;20046;-80
2021/12/02 07:53:47;;;;;;;2.67;1.90;;;4.10;99.90;;;;;;4973953;28;20057;-79
2021/12/02 07:56:19;;;;;;;4.70;1.80;;;4.10;99.90;;;;;;4972402;28;20142;-79
2021/12/02 07:58:47;;;;;;;6.50;2.53;;;4.10;99.90;;;;;;4973930;28;20085;-79
2021/12/02 08:01:14;;;;;;;9.07;4.30;;;4.10;99.90;;;;;;4991294;28;20070;-79
2021/12/02 08:03:47;;;;;;;6.95;3.20;;;4.10;99.90;;;;;;4973608;28;20125;-80
2021/12/02 08:06:14;;;;;;;6.75;3.60;;;4.10;99.90;;;;;;4973963;28;20065;-80
2021/12/02 08:08:41;;;;;;;5.43;2.15;;;4.10;99.90;;;;;;4973460;28;20051;-80
2021/12/02 08:11:11;;;;;;;4.53;1.75;;;4.10;99.90;;;;;;4983205;28;20084;-80
2021/12/02 08:13:36;;;;;;;3.58;2.63;;;4.50;99.90;;;;;;4973674;28;20374;-79
2021/12/02 08:16:07;;;;;;;8.00;2.05;;;4.00;99.90;;;;;;4974032;28;20047;-79
2021/12/02 08:18:33;;;;;;;5.97;2.25;;;4.00;99.90;;;;;;4973170;28;20552;-80
2021/12/02 08:21:00;;;;;;;10.60;1.70;;;4.10;99.90;;;;;;4974795;28;20046;-80
2021/12/02 08:23:27;;;;;;;7.05;1.75;;;4.00;99.90;;;;;;4990566;28;20061;-80
2021/12/02 08:25:54;;;;;;;6.53;1.88;;;4.00;99.90;;;;;;4974180;28;20078;-80
2021/12/02 08:28:20;;;;;;;6.30;2.10;;;4.00;99.90;;;;;;4971992;28;20042;-80
2021/12/02 08:30:46;;;;;;;6.90;1.92;;;4.00;99.90;;;;;;4974006;28;20049;-80
2021/12/02 08:33:13;;;;;;;5.53;1.52;;;4.00;99.90;;;;;;4986271;28;20089;-80
2021/12/02 08:35:39;;;;;;;4.68;1.70;;;4.00;99.90;;;;;;4993146;28;20111;-80
2021/12/02 08:38:11;;;;;;;2.00;1.30;;;4.10;99.90;;;;;;4991991;28;20533;-80
2021/12/02 08:40:38;;;;;;;5.82;1.40;;;4.10;99.90;;;;;;5010540;28;20049;-80
2021/12/02 08:43:09;;;;;;;6.45;1.58;;;4.10;99.90;;;;;;4993395;28;20055;-79
2021/12/02 08:45:37;;;;;;;4.68;1.48;;;4.10;99.90;;;;;;5002547;28;20087;-79
2021/12/02 08:48:04;;;;;;;2.50;1.38;;;4.10;99.90;;;;;;4993034;28;20041;-79
2021/12/02 08:50:31;;;;;;;2.88;1.70;;;4.10;99.90;;;;;;4994515;28;20050;-80
2021/12/02 08:52:58;;;;;;;5.57;2.45;;;4.10;99.90;;;;;;4992676;28;20046;-79
2021/12/02 08:55:24;;;;;;;2.75;2.00;;;4.20;99.90;;;;;;4992645;28;20132;-79
2021/12/02 08:57:51;;;;;;;6.00;1.90;;;4.30;99.90;;;;;;4996998;28;20038;-79
2021/12/02 09:00:22;;;;;;;7.50;1.90;;;4.30;99.90;;;;;;4995873;28;20096;-79
2021/12/02 09:02:48;;;;;;;3.88;1.70;;;4.30;99.90;;;;;;4994704;28;20045;-80
2021/12/02 09:05:14;;;;;;;7.22;2.17;;;4.40;99.90;;;;;;4996632;28;20050;-80
2021/12/02 09:07:40;;;;;;;4.75;2.10;;;4.40;99.90;;;;;;4996019;28;20085;-80
2021/12/02 09:10:08;;;;;;;6.72;2.25;;;4.50;99.90;;;;;;4995285;28;20081;-80
2021/12/02 09:12:34;;;;;;;4.72;2.20;;;4.40;99.90;;;;;;5013147;28;20096;-79
2021/12/02 09:15:00;;;;;;;4.75;2.60;;;4.40;99.90;;;;;;4995975;28;20056;-80
2021/12/02 09:17:26;;;;;;;8.80;2.50;;;4.50;99.90;;;;;;4994821;28;20057;-79
2021/12/02 09:19:52;;;;;;;6.50;2.42;;;4.50;99.90;;;;;;4997478;28;20042;-80
2021/12/02 09:22:18;;;;;;;4.60;2.35;;;4.60;99.90;;;;;;4994709;28;20496;-79
2021/12/02 09:24:44;;;;;;;6.72;2.35;;;4.70;99.90;;;;;;4994499;28;20041;-79
2021/12/02 09:27:09;;;;;;;4.43;1.85;;;4.70;99.90;;;;;;4995477;28;20041;-79
2021/12/02 09:29:35;;;;;;;6.05;1.60;;;4.80;99.90;;;;;;4992900;28;20045;-79
2021/12/02 09:32:02;;;;;;;4.50;2.00;;;4.90;99.90;;;;;;4995509;28;20119;-80
2021/12/02 09:34:28;;;;;;;8.48;2.13;;;5.00;99.90;;;;;;4994990;28;20584;-80
2021/12/02 09:36:55;;;;;;;5.00;1.60;;;5.10;99.90;;;;;;4995759;28;20050;-81
2021/12/02 09:39:21;;;;;;;5.00;1.73;;;5.20;99.90;;;;;;4994479;28;20041;-80
2021/12/02 09:41:47;;;;;;;4.45;1.80;;;5.20;99.90;;;;;;4995432;28;20394;-80
2021/12/02 09:44:14;;;;;;;2.33;1.50;;;5.20;99.90;;;;;;4994073;28;20042;-79
2021/12/02 09:46:41;;;;;;;4.50;1.40;;;5.30;99.90;;;;;;4993569;28;20080;-79
2021/12/02 09:49:12;;;;;;;6.60;1.73;;;5.40;99.90;;;;;;4994918;28;20053;-80
2021/12/02 09:54:26;;;;;;;4.70;1.50;;;5.60;99.90;;;;;;4993694;28;20077;-79
2021/12/02 09:56:55;;;;;;;4.53;1.67;;;5.80;99.90;;;;;;4995402;28;20397;-80
2021/12/02 09:59:25;;;;;;;4.07;1.48;;;5.80;99.90;;;;;;4995279;28;20112;-80
2021/12/02 10:01:56;;;;;;;9.15;1.70;;;5.70;99.90;;;;;;4995822;28;20046;-79
2021/12/02 10:04:23;;;;;;;12.60;3.30;;;5.60;99.90;;;;;;4993969;28;20414;-80
2021/12/02 10:07:02;;;;;;;10.85;2.67;;;5.30;99.90;;;;;;4995604;28;20049;-79
2021/12/02 10:09:39;;;;;;;5.57;2.03;;;5.20;99.90;;;;;;4994632;28;20050;-80
2021/12/02 10:12:21;;;;;;;9.88;2.00;;;5.00;99.90;;;;;;4995292;28;20050;-80
2021/12/02 10:14:57;;;;;;;3.80;1.80;;;5.00;99.90;;;;;;4989134;28;20046;-81
2021/12/02 10:17:33;;;;;;;5.00;1.80;;;5.00;99.90;;;;;;4993521;28;20074;-80
2021/12/02 10:23:22;;;;;;;10.45;2.80;;;5.00;99.90;;;;;;4990219;28;20050;-79
2021/12/02 10:25:57;;;;;;;4.53;1.98;;;5.10;99.90;;;;;;4990753;28;20049;-80
2021/12/02 10:28:24;;;;;;;3.08;1.77;;;5.30;99.90;;;;;;4987967;28;20042;-79
2021/12/02 10:30:53;;;;;;;2.05;1.33;;;5.40;99.90;;;;;;4988319;28;20042;-78
2021/12/02 10:33:50;;;;;;;5.40;1.60;;;5.50;99.90;;;;;;5008504;28;20062;-79
2021/12/02 10:36:39;;;;;;;2.85;1.40;;;5.60;99.90;;;;;;4995285;28;20042;-79
2021/12/02 10:39:10;;;;;;;5.25;2.08;;;5.50;99.90;;;;;;4992829;28;20072;-79
2021/12/02 10:41:36;;;;;;;4.13;1.63;;;5.40;99.90;;;;;;4995880;28;20045;-80
2021/12/02 10:44:20;;;;;;;10.18;2.10;;;5.30;99.90;;;;;;5003950;28;20050;-80
2021/12/02 10:47:00;;;;;;;7.13;1.98;;;5.30;99.90;;;;;;4989468;28;20050;-79
2021/12/02 10:49:29;;;;;;;10.43;2.22;;;5.20;99.90;;;;;;4985461;28;20490;-79
2021/12/02 10:51:58;;;;;;;8.20;2.35;;;5.10;99.90;;;;;;5010588;28;20042;-79
2021/12/02 10:54:27;;;;;;;8.85;2.22;;;5.10;99.90;;;;;;4988306;28;20041;-80
2021/12/02 10:56:58;;;;;;;6.25;2.20;;;5.00;99.90;;;;;;4990929;28;20169;-79
2021/12/02 10:59:42;;;;;;;8.10;2.00;;;5.10;99.90;;;;;;5010236;28;20486;-80
2021/12/02 11:02:20;;;;;;;5.75;1.63;;;5.00;99.90;;;;;;4992019;28;20085;-79
2021/12/02 11:05:03;;;;;;;8.10;2.20;;;5.10;99.90;;;;;;4986776;28;20501;-79
2021/12/02 11:07:33;;;;;;;5.10;1.90;;;5.10;99.90;;;;;;4993324;28;20057;-79
2021/12/02 11:10:05;;;;;;;6.63;1.83;;;5.20;99.90;;;;;;5011629;28;20038;-79
2021/12/02 11:12:34;;;;;;;4.22;2.22;;;5.20;99.90;;;;;;4989703;28;20041;-79
2021/12/02 11:15:07;;;;;;;3.80;1.83;;;5.20;99.90;;;;;;4992280;28;20681;-80
2021/12/02 11:17:39;;;;;;;6.57;1.95;;;5.20;99.90;;;;;;4986388;28;20077;-80
2021/12/02 11:20:09;;;;;;;7.68;2.65;;;5.30;99.90;;;;;;4992514;28;20057;-81
2021/12/02 11:22:34;;;;;;;7.63;2.38;;;5.40;99.90;;;;;;4988284;28;20053;-81
2021/12/02 11:25:01;;;;;;;10.55;1.95;;;5.60;99.90;;;;;;4990833;28;20034;-81
2021/12/02 11:27:38;;;;;;;4.65;1.75;;;5.60;99.90;;;;;;5005858;28;20266;-82
2021/12/02 11:30:08;;;;;;;3.53;1.70;;;5.70;99.90;;;;;;4983995;28;20518;-80
2021/12/02 11:32:55;;;;;;;4.47;1.88;;;5.80;99.90;;;;;;4988102;28;20065;-81
2021/12/02 11:35:24;;;;;;;6.68;1.80;;;5.80;99.90;;;;;;4990244;28;20085;-80
2021/12/02 11:37:54;;;;;;;3.17;1.63;;;5.80;99.90;;;;;;4988427;28;20045;-80
2021/12/02 11:40:24;;;;;;;8.48;2.20;;;5.80;99.90;;;;;;5001873;28;20059;-80
2021/12/02 11:42:51;;;;;;;6.18;2.35;;;5.90;99.90;;;;;;4988587;28;20069;-79
2021/12/02 11:45:21;;;;;;;6.70;2.50;;;6.00;99.90;;;;;;4989865;28;20044;-80
2021/12/02 11:47:47;;;;;;;4.68;2.28;;;6.00;99.90;;;;;;4989425;28;20038;-80
2021/12/02 11:50:15;;;;;;;8.25;2.60;;;6.10;99.90;;;;;;5007472;28;20046;-79
2021/12/02 11:52:44;;;;;;;4.70;2.20;;;6.20;99.90;;;;;;4988320;28;20124;-79
2021/12/02 11:55:18;;;;;;;7.68;2.20;;;6.30;99.90;;;;;;4989598;28;20089;-79
2021/12/02 11:57:44;;;;;;;8.90;2.38;;;6.30;99.90;;;;;;4983604;28;20058;-79
2021/12/02 12:00:14;;;;;;;3.88;1.75;;;6.40;99.90;;;;;;5003525;28;20084;-79
2021/12/02 12:02:52;;;;;;;5.22;1.77;;;6.50;99.90;;;;;;4989463;28;20393;-80
2021/12/02 12:05:22;;;;;;;3.42;1.67;;;6.60;99.90;;;;;;4990667;28;20389;-79
2021/12/02 12:07:48;;;;;;;4.18;2.25;;;6.50;99.90;;;;;;4991443;28;20046;-80
2021/12/02 12:10:31;;;;;;;4.65;1.65;;;6.50;99.90;;;;;;4990596;28;20053;-79
2021/12/02 12:13:22;;;;;;;3.95;2.20;;;6.50;99.90;;;;;;4988946;28;20048;-80
2021/12/02 12:15:48;;;;;;;3.28;1.90;;;6.50;99.90;;;;;;4990103;28;20037;-80
2021/12/02 12:18:24;;;;;;;6.53;2.10;;;6.50;99.90;;;;;;5001836;28;20038;-80
2021/12/02 12:20:59;;;;;;;2.75;1.70;;;6.50;99.90;;;;;;4988275;28;20046;-79
2021/12/02 12:23:47;;;;;;;4.28;1.63;;;6.50;99.90;;;;;;4984410;28;20041;-80
2021/12/02 12:26:30;;;;;;;5.25;1.60;;;6.40;99.90;;;;;;4985542;28;20041;-80
2021/12/02 12:31:34;;;;;;;3.22;1.55;;;6.50;99.90;;;;;;4993484;28;20402;-80
2021/12/02 12:34:01;;;;;;;5.82;1.73;;;6.60;99.90;;;;;;5009181;28;20164;-80
2021/12/02 12:36:37;;;;;;;4.35;1.90;;;7.00;99.90;;;;;;4992931;28;20527;-79
2021/12/02 12:39:30;;;;;;;5.97;1.60;;;7.70;99.90;;;;;;5008536;28;20038;-79
2021/12/02 12:42:15;;;;;;;3.65;1.70;;;;;;;;;;4992894;28;20037;-79
2021/12/02 12:45:00;;;;;;;5.03;1.73;;;8.80;99.90;;;;;;4991651;28;20060;-79
2021/12/02 12:47:53;;;;;;;3.22;1.50;;;;;;;;;;4992542;28;20069;-80
2021/12/02 12:50:37;;;;;;;4.90;2.10;;;10.80;99.90;;;;;;5005397;28;20081;-80
2021/12/02 12:53:07;;;;;;;9.70;2.33;;;;;;;;;;4992946;28;20046;-79
2021/12/02 12:55:37;;;;;;;6.13;2.05;;;;;;;;;;4992046;28;20049;-79
2021/12/02 12:58:13;;;;;;;8.40;2.88;;;11.50;99.90;;;;;;5011554;28;20125;-80
2021/12/02 13:00:46;;;;;;;11.93;2.50;;;10.80;99.90;;;;;;4992860;28;20049;-80
2021/12/02 13:03:20;;;;;;;9.27;3.40;;;10.20;99.90;;;;;;5011214;28;20046;-80
2021/12/02 13:05:56;;;;;;;7.50;2.10;;;9.60;99.90;;;;;;4993875;28;20050;-80
2021/12/02 13:08:31;;;;;;;8.27;2.17;;;9.20;99.90;;;;;;4993526;28;20046;-80
2021/12/02 13:11:00;;;;;;;9.68;2.40;;;8.80;99.90;;;;;;5011671;28;20625;-79
2021/12/02 13:13:31;;;;;;;10.15;2.42;;;8.40;99.90;;;;;;4994425;28;20097;-80
2021/12/02 13:16:16;;;;;;;10.60;2.40;;;8.10;99.90;;;;;;4994787;28;20041;-80
2021/12/02 13:18:54;;;;;;;8.73;2.60;;;7.70;99.90;;;;;;4983084;28;20062;-80
2021/12/02 13:21:21;;;;;;;11.02;2.20;;;7.50;99.90;;;;;;4987404;28;20030;-80
2021/12/02 13:24:17;;;;;;;8.30;2.50;;;7.30;99.90;;;;;;4989943;28;20176;-78
2021/12/02 13:26:52;;;;;;;12.57;2.85;;;7.10;99.90;;;;;;4975792;28;20062;-80
2021/12/02 13:29:23;;;;;;;11.52;2.63;;;6.90;99.90;;;;;;4989918;28;20491;-80
2021/12/02 13:31:52;;;;;;;10.95;2.35;;;6.80;99.90;;;;;;4993579;28;20034;-80
2021/12/02 13:34:20;;;;;;;10.93;2.95;;;6.70;99.90;;;;;;4989981;28;20062;-79
2021/12/02 13:36:55;;;;;;;13.88;3.00;;;6.60;99.90;;;;;;4987556;28;20054;-80